createdAt,value
2024-03-12T00:02:11.518Z,68.40
2024-03-12T00:04:42.198Z,69.78
2024-03-12T00:07:11.128Z,70.38
2024-03-12T00:09:39.463Z,68.85
2024-03-12T00:12:08.269Z,68.60
2024-03-12T00:14:36.342Z,68.90
2024-03-12T00:17:05.010Z,64.28
2024-03-12T00:19:34.890Z,68.55
2024-03-12T00:22:04.980Z,67.63
2024-03-12T00:24:33.311Z,69.47
2024-03-12T00:27:01.613Z,69.40
2024-03-12T00:29:29.734Z,68.60
2024-03-12T00:31:59.140Z,68.93
2024-03-12T00:34:27.371Z,69.90
2024-03-12T00:36:55.579Z,69.72
2024-03-12T00:39:26.667Z,68.72
2024-03-12T00:41:55.527Z,69.50
2024-03-12T00:44:25.065Z,69.75
2024-03-12T00:46:53.302Z,69.28
2024-03-12T00:49:21.590Z,65.97
2024-03-12T00:51:49.962Z,65.97
2024-03-12T00:54:18.661Z,65.93
2024-03-12T00:56:50.911Z,66.70
2024-03-12T00:59:19.784Z,65.32
2024-03-12T01:01:50.157Z,67.45
2024-03-12T01:04:18.425Z,68.15
2024-03-12T01:06:46.945Z,67.70
2024-03-12T01:09:18.342Z,66.60
2024-03-12T01:11:47.920Z,64.10
2024-03-12T01:14:18.468Z,66.07
2024-03-12T01:16:46.841Z,67.13
2024-03-12T01:19:15.368Z,66.03
2024-03-12T01:21:43.436Z,64.50
2024-03-12T01:24:13.915Z,62.03
2024-03-12T01:26:43.254Z,67.70
2024-03-12T01:29:12.677Z,62.95
2024-03-12T01:31:42.250Z,66.50
2024-03-12T01:34:10.649Z,64.80
2024-03-12T01:36:41.155Z,67.20
2024-03-12T01:39:09.537Z,66.32
2024-03-12T01:41:43.082Z,63.72
2024-03-12T01:44:12.996Z,63.55
2024-03-12T01:46:41.731Z,65.30
2024-03-12T01:49:11.238Z,64.95
2024-03-12T01:51:39.846Z,66.30
2024-03-12T01:54:10.093Z,64.80
2024-03-12T01:56:38.338Z,68.22
2024-03-12T01:59:06.358Z,65.95
2024-03-12T02:01:37.961Z,65.47
2024-03-12T02:04:06.405Z,66.18
2024-03-12T02:06:34.545Z,66.28
2024-03-12T02:09:05.614Z,64.60
2024-03-12T02:11:33.616Z,66.32
2024-03-12T02:14:02.068Z,65.82
2024-03-12T02:16:30.089Z,64.38
2024-03-12T02:18:59.652Z,66.05
2024-03-12T02:21:27.767Z,66.60
2024-03-12T02:23:58.061Z,63.95
2024-03-12T02:26:27.061Z,67.65
2024-03-12T02:28:55.101Z,66.47
2024-03-12T02:31:23.475Z,64.90
2024-03-12T02:33:51.579Z,65.97
2024-03-12T02:36:21.334Z,66.72
2024-03-12T02:38:50.717Z,66.68
2024-03-12T02:41:22.883Z,64.40
2024-03-12T02:43:52.897Z,65.13
2024-03-12T02:46:22.539Z,67.47
2024-03-12T02:48:52.790Z,65.60
2024-03-12T02:51:21.029Z,63.40
2024-03-12T02:53:49.105Z,64.55
2024-03-12T02:56:17.540Z,64.97
2024-03-12T02:58:47.184Z,63.47
2024-03-12T03:01:16.774Z,62.10
2024-03-12T03:03:45.261Z,62.67
2024-03-12T03:06:13.394Z,63.10
2024-03-12T03:08:41.396Z,62.72
2024-03-12T03:11:09.565Z,62.90
2024-03-12T03:13:37.654Z,64.05
2024-03-12T03:16:07.656Z,62.88
2024-03-12T03:18:36.013Z,66.28
2024-03-12T03:21:04.422Z,63.35
2024-03-12T03:23:32.390Z,62.22
2024-03-12T03:26:00.390Z,62.47
2024-03-12T03:28:28.535Z,63.45
2024-03-12T03:31:01.179Z,63.55
2024-03-12T03:33:31.086Z,63.10
2024-03-12T03:35:59.362Z,61.28
2024-03-12T03:38:30.175Z,60.63
2024-03-12T03:40:58.333Z,60.33
2024-03-12T03:43:26.677Z,59.88
2024-03-12T03:45:55.320Z,60.53
2024-03-12T03:48:23.555Z,60.35
2024-03-12T03:50:53.320Z,61.63
2024-03-12T03:53:21.585Z,59.80
2024-03-12T03:55:50.436Z,59.75
2024-03-12T03:58:19.565Z,60.85
2024-03-12T04:00:47.817Z,57.03
2024-03-12T04:03:15.824Z,57.97
2024-03-12T04:05:43.797Z,57.75
2024-03-12T04:08:13.555Z,57.70
2024-03-12T04:10:43.657Z,56.33
2024-03-12T04:13:11.876Z,55.78
2024-03-12T04:15:41.559Z,56.70
2024-03-12T04:18:09.814Z,55.45
2024-03-12T04:20:37.879Z,56.85
2024-03-12T04:23:06.231Z,55.33
2024-03-12T04:25:35.740Z,56.40
2024-03-12T04:28:04.001Z,56.00
2024-03-12T04:30:32.583Z,56.95
2024-03-12T04:33:00.806Z,55.22
2024-03-12T04:35:28.882Z,55.78
2024-03-12T04:37:56.919Z,55.10
2024-03-12T04:40:25.115Z,54.42
2024-03-12T04:42:54.885Z,56.13
2024-03-12T04:45:23.233Z,54.38
2024-03-12T04:47:52.428Z,55.45
2024-03-12T04:50:24.311Z,56.00
2024-03-12T04:52:52.897Z,54.45
2024-03-12T04:55:20.982Z,54.20
2024-03-12T04:57:49.040Z,55.40
2024-03-12T05:00:21.258Z,55.95
2024-03-12T05:02:50.623Z,54.08
2024-03-12T05:05:20.594Z,55.47
2024-03-12T05:07:48.841Z,54.53
2024-03-12T05:10:17.384Z,53.42
2024-03-12T05:12:45.539Z,54.70
2024-03-12T05:15:14.453Z,54.20
2024-03-12T05:17:44.186Z,54.13
2024-03-12T05:20:15.536Z,55.05
2024-03-12T05:22:43.706Z,52.67
2024-03-12T05:25:20.412Z,53.03
2024-03-12T05:27:48.960Z,52.03
2024-03-12T05:30:17.201Z,53.28
2024-03-12T05:32:49.787Z,52.55
2024-03-12T05:35:23.620Z,52.72
2024-03-12T05:38:05.708Z,52.35
2024-03-12T05:40:58.410Z,51.63
2024-03-12T05:43:44.012Z,52.58
2024-03-12T05:46:29.370Z,50.00
2024-03-12T05:48:58.859Z,52.28
2024-03-12T05:51:27.301Z,52.10
2024-03-12T05:53:55.444Z,51.55
2024-03-12T05:56:23.477Z,52.65
2024-03-12T05:58:51.798Z,52.53
2024-03-12T06:01:22.277Z,52.40
2024-03-12T06:03:50.898Z,51.60
2024-03-12T06:06:21.179Z,52.05
2024-03-12T06:08:49.420Z,52.97
2024-03-12T06:11:18.375Z,53.03
2024-03-12T06:13:46.489Z,53.58
2024-03-12T06:16:14.780Z,53.75
2024-03-12T06:18:43.251Z,53.13
2024-03-12T06:21:11.478Z,50.97
2024-03-12T06:23:41.084Z,52.85
2024-03-12T06:26:09.349Z,52.92
2024-03-12T06:28:39.001Z,53.33
2024-03-12T06:31:07.369Z,54.40
2024-03-12T06:33:36.637Z,52.97
2024-03-12T06:36:05.362Z,52.22
2024-03-12T06:38:33.570Z,54.22
2024-03-12T06:41:05.032Z,52.03
2024-03-12T06:43:35.065Z,52.22
2024-03-12T06:46:04.201Z,52.15
2024-03-12T06:48:32.469Z,49.80
2024-03-12T06:51:01.599Z,51.63
2024-03-12T06:53:30.121Z,51.53
2024-03-12T06:55:58.832Z,49.13
2024-03-12T06:58:29.991Z,50.10
2024-03-12T07:00:58.854Z,50.13
2024-03-12T07:03:29.115Z,50.03
2024-03-12T07:05:57.963Z,50.90
2024-03-12T07:08:27.880Z,51.83
2024-03-12T07:10:56.899Z,49.97
2024-03-12T07:13:27.649Z,50.05
2024-03-12T07:15:57.401Z,50.53
2024-03-12T07:18:25.647Z,51.45
2024-03-12T07:20:55.577Z,52.20
2024-03-12T07:23:23.622Z,50.97
2024-03-12T07:25:51.954Z,51.33
2024-03-12T07:28:24.316Z,49.80
2024-03-12T07:30:53.963Z,50.75
2024-03-12T07:33:24.368Z,50.50
2024-03-12T07:35:52.866Z,51.42
2024-03-12T07:38:20.959Z,49.80
2024-03-12T07:40:49.164Z,50.88
2024-03-12T07:43:17.497Z,51.10
2024-03-12T07:45:47.920Z,49.55
2024-03-12T07:48:16.804Z,50.50
2024-03-12T07:50:46.479Z,49.90
2024-03-12T07:53:15.258Z,51.10
2024-03-12T07:55:44.523Z,50.03
2024-03-12T07:58:13.923Z,50.30
2024-03-12T08:00:42.305Z,51.83
2024-03-12T08:03:10.864Z,49.33
2024-03-12T08:05:39.091Z,50.92
2024-03-12T08:08:09.465Z,49.17
2024-03-12T08:10:39.454Z,49.17
2024-03-12T08:13:07.831Z,50.53
2024-03-12T08:15:36.797Z,49.25
2024-03-12T08:18:17.331Z,49.13
2024-03-12T08:20:49.443Z,48.90
2024-03-12T08:23:20.794Z,48.70
2024-03-12T08:25:55.862Z,49.45
2024-03-12T08:28:27.656Z,50.78
2024-03-12T08:31:00.020Z,49.65
2024-03-12T08:33:33.163Z,50.45
2024-03-12T08:36:02.497Z,50.08
2024-03-12T08:38:32.215Z,50.55
2024-03-12T08:41:00.383Z,50.42
2024-03-12T08:43:28.620Z,51.88
2024-03-12T08:45:56.901Z,51.85
2024-03-12T08:48:24.978Z,51.15
2024-03-12T08:50:53.157Z,50.65
2024-03-12T08:53:21.408Z,50.42
2024-03-12T08:55:50.949Z,53.38
2024-03-12T08:58:19.649Z,52.90
2024-03-12T09:00:48.169Z,52.88
2024-03-12T09:03:16.716Z,53.88
2024-03-12T09:05:44.838Z,54.20
2024-03-12T09:08:13.032Z,55.78
2024-03-12T09:10:42.000Z,54.92
2024-03-12T09:13:13.016Z,54.50
2024-03-12T09:15:42.304Z,55.90
2024-03-12T09:18:11.143Z,55.90
2024-03-12T09:20:39.432Z,56.53
2024-03-12T09:23:07.872Z,55.78
2024-03-12T09:25:36.016Z,55.35
2024-03-12T09:28:06.035Z,56.08
2024-03-12T09:30:35.994Z,54.70
2024-03-12T09:33:05.467Z,56.38
2024-03-12T09:35:33.746Z,55.92
2024-03-12T09:38:02.276Z,55.53
2024-03-12T09:40:31.112Z,56.22
2024-03-12T09:43:04.848Z,54.83
2024-03-12T09:45:33.697Z,56.47
2024-03-12T09:48:03.906Z,56.38
2024-03-12T09:50:32.784Z,56.25
2024-03-12T09:53:01.922Z,57.22
2024-03-12T09:55:30.818Z,56.00
2024-03-12T09:57:59.244Z,54.75
2024-03-12T10:00:32.539Z,55.60
2024-03-12T10:03:02.236Z,54.38
2024-03-12T10:05:30.566Z,54.30
2024-03-12T10:08:10.080Z,53.88
2024-03-12T10:10:40.001Z,54.05
2024-03-12T10:13:09.894Z,55.85
2024-03-12T10:15:38.929Z,55.90
2024-03-12T10:18:08.660Z,54.92
2024-03-12T10:20:47.115Z,54.63
2024-03-12T10:23:16.931Z,53.95
2024-03-12T10:25:46.987Z,54.95
2024-03-12T10:28:16.659Z,56.90
2024-03-12T10:30:46.976Z,56.80
2024-03-12T10:33:20.094Z,56.88
2024-03-12T10:35:48.874Z,56.55
2024-03-12T10:38:28.057Z,54.78
2024-03-12T10:40:56.866Z,55.72
2024-03-12T10:43:26.498Z,55.58
2024-03-12T10:45:55.516Z,56.67
2024-03-12T10:48:26.879Z,57.22
2024-03-12T10:50:56.882Z,58.90
2024-03-12T10:53:26.290Z,62.72
2024-03-12T10:55:56.339Z,62.78
2024-03-12T10:58:24.938Z,61.70
2024-03-12T11:00:53.706Z,61.60
2024-03-12T11:03:24.554Z,62.78
2024-03-12T11:05:56.177Z,63.75
2024-03-12T11:08:26.042Z,59.67
2024-03-12T11:10:55.306Z,62.63
2024-03-12T11:13:23.868Z,62.90
2024-03-12T11:15:52.574Z,59.17
2024-03-12T11:18:35.638Z,59.35
2024-03-12T11:21:05.937Z,58.85
2024-03-12T11:23:34.398Z,57.92
2024-03-12T11:26:08.522Z,57.10
2024-03-12T11:28:49.767Z,59.33
2024-03-12T11:31:20.022Z,60.90
2024-03-12T11:33:50.809Z,62.40
2024-03-12T11:36:30.053Z,62.22
2024-03-12T11:39:00.476Z,64.18
2024-03-12T11:42:12.805Z,65.05
2024-03-12T11:44:49.892Z,69.97
2024-03-12T11:47:30.335Z,65.30
2024-03-12T11:50:01.582Z,67.53
2024-03-12T11:52:34.725Z,69.10
2024-03-12T11:55:05.410Z,65.97
2024-03-12T11:57:35.507Z,69.65
2024-03-12T12:00:11.419Z,72.93
2024-03-12T12:02:43.867Z,73.38
2024-03-12T12:05:14.696Z,74.40
2024-03-12T12:07:44.380Z,75.07
2024-03-12T12:10:13.641Z,74.78
2024-03-12T12:12:42.565Z,80.05
2024-03-12T12:15:14.186Z,84.70
2024-03-12T12:17:42.473Z,85.20
2024-03-12T12:20:17.170Z,87.25
2024-03-12T12:22:48.586Z,82.82
2024-03-12T12:25:20.141Z,88.10
2024-03-12T12:27:48.954Z,84.93
2024-03-12T12:30:22.034Z,87.88
2024-03-12T12:32:52.832Z,90.43
2024-03-12T12:35:22.313Z,88.70
2024-03-12T12:37:52.534Z,93.28
2024-03-12T12:40:23.169Z,88.68
2024-03-12T12:42:52.826Z,86.15
2024-03-12T12:45:22.177Z,88.82
2024-03-12T12:47:51.432Z,88.20
2024-03-12T12:50:31.109Z,89.28
2024-03-12T12:53:03.476Z,86.20
2024-03-12T12:55:32.400Z,90.20
2024-03-12T12:58:02.941Z,89.00
2024-03-12T13:00:37.403Z,93.32
2024-03-12T13:03:17.982Z,89.82
2024-03-12T13:05:46.625Z,90.45
2024-03-12T13:08:24.334Z,90.32
2024-03-12T13:11:01.360Z,86.70
2024-03-12T13:13:30.119Z,90.03
2024-03-12T13:15:58.264Z,89.22
2024-03-12T13:18:27.046Z,91.63
2024-03-12T13:20:55.804Z,86.85
2024-03-12T13:23:25.315Z,87.00
2024-03-12T13:25:53.610Z,87.55
2024-03-12T13:28:23.596Z,90.05
2024-03-12T13:30:53.653Z,85.43
2024-03-12T13:33:22.735Z,89.07
2024-03-12T13:35:53.318Z,86.80
2024-03-12T13:38:22.382Z,86.75
2024-03-12T13:40:51.900Z,89.35
2024-03-12T13:43:20.309Z,88.30
2024-03-12T13:45:49.948Z,88.65
2024-03-12T13:48:18.728Z,87.82
2024-03-12T13:50:48.685Z,85.97
2024-03-12T13:53:17.492Z,87.43
2024-03-12T13:55:45.648Z,82.90
2024-03-12T13:58:15.303Z,84.70
2024-03-12T14:00:44.067Z,88.25
2024-03-12T14:03:12.600Z,86.07
2024-03-12T14:05:47.305Z,82.57
2024-03-12T14:08:16.258Z,84.63
2024-03-12T14:10:46.498Z,86.80
2024-03-12T14:13:20.029Z,83.72
2024-03-12T14:15:49.218Z,81.43
2024-03-12T14:18:22.315Z,80.72
2024-03-12T14:20:52.498Z,79.88
2024-03-12T14:23:20.926Z,74.00
2024-03-12T14:25:50.012Z,72.53
2024-03-12T14:28:19.793Z,72.88
2024-03-12T14:30:50.828Z,75.60
2024-03-12T14:33:19.056Z,74.75
2024-03-12T14:35:48.197Z,74.07
2024-03-12T14:38:16.369Z,73.07
2024-03-12T14:40:44.548Z,74.05
2024-03-12T14:43:12.997Z,73.93
2024-03-12T14:45:43.847Z,71.22
2024-03-12T14:48:14.155Z,72.13
2024-03-12T14:50:43.710Z,71.25
2024-03-12T14:53:12.314Z,70.57
2024-03-12T14:55:41.057Z,70.43
2024-03-12T14:58:09.885Z,73.50
2024-03-12T15:00:40.425Z,70.75
2024-03-12T15:03:13.843Z,71.00
2024-03-12T15:05:42.794Z,69.47
2024-03-12T15:08:11.695Z,68.50
2024-03-12T15:10:40.187Z,68.63
2024-03-12T15:13:08.440Z,70.75
2024-03-12T15:15:36.717Z,69.63
2024-03-12T15:18:05.991Z,65.95
2024-03-12T15:20:36.757Z,64.65
2024-03-12T15:23:05.550Z,60.30
2024-03-12T15:25:34.241Z,58.75
2024-03-12T15:28:02.516Z,59.22
2024-03-12T15:30:31.875Z,58.72
2024-03-12T15:33:00.210Z,58.72
2024-03-12T15:35:28.416Z,56.63
2024-03-12T15:38:00.021Z,57.05
2024-03-12T15:40:31.338Z,57.53
2024-03-12T15:43:00.977Z,55.85
2024-03-12T15:45:29.128Z,56.20
2024-03-12T15:47:57.274Z,56.92
2024-03-12T15:50:27.525Z,55.40
2024-03-12T15:52:57.966Z,56.83
2024-03-12T15:55:27.468Z,55.63
2024-03-12T15:57:56.054Z,57.90
2024-03-12T16:00:24.549Z,56.47
2024-03-12T16:02:55.174Z,55.78
2024-03-12T16:05:23.493Z,52.88
2024-03-12T16:07:52.682Z,53.95
2024-03-12T16:10:22.891Z,54.88
2024-03-12T16:12:51.275Z,53.78
2024-03-12T16:15:20.207Z,52.90
2024-03-12T16:17:48.529Z,53.53
2024-03-12T16:20:20.419Z,52.40
2024-03-12T16:22:48.986Z,53.45
2024-03-12T16:25:18.564Z,51.92
2024-03-12T16:27:48.157Z,52.50
2024-03-12T16:30:16.751Z,52.83
2024-03-12T16:32:45.820Z,53.55
2024-03-12T16:35:16.512Z,52.97
2024-03-12T16:37:45.371Z,50.80
2024-03-12T16:40:14.480Z,49.55
2024-03-12T16:42:44.600Z,49.25
2024-03-12T16:45:14.496Z,48.45
2024-03-12T16:47:43.413Z,49.60
2024-03-12T16:50:16.017Z,50.25
2024-03-12T16:52:44.664Z,53.05
2024-03-12T16:55:13.808Z,52.33
2024-03-12T16:57:42.497Z,49.08
2024-03-12T17:00:15.371Z,49.08
2024-03-12T17:02:46.523Z,49.90
2024-03-12T17:05:18.183Z,50.40
2024-03-12T17:07:50.503Z,51.45
2024-03-12T17:10:19.495Z,48.65
2024-03-12T17:12:48.353Z,49.22
2024-03-12T17:15:17.466Z,49.67
2024-03-12T17:17:47.893Z,49.55
2024-03-12T17:20:16.899Z,48.25
2024-03-12T17:22:46.638Z,50.03
2024-03-12T17:25:18.057Z,49.53
2024-03-12T17:27:48.636Z,49.95
2024-03-12T17:30:17.309Z,49.42
2024-03-12T17:32:47.735Z,47.70
2024-03-12T17:35:18.842Z,48.08
2024-03-12T17:37:49.217Z,49.13
2024-03-12T17:40:19.759Z,48.17
2024-03-12T17:42:49.274Z,49.13
2024-03-12T17:45:18.110Z,49.85
2024-03-12T17:47:50.615Z,49.58
2024-03-12T17:50:20.339Z,51.20
2024-03-12T17:52:51.107Z,51.13
2024-03-12T17:55:20.862Z,51.17
2024-03-12T17:57:50.047Z,49.20
2024-03-12T18:00:19.964Z,47.58
2024-03-12T18:02:51.238Z,46.45
2024-03-12T18:05:21.771Z,48.63
2024-03-12T18:07:53.208Z,46.63
2024-03-12T18:10:22.799Z,46.35
2024-03-12T18:12:51.441Z,47.10
2024-03-12T18:15:21.590Z,44.13
2024-03-12T18:17:51.308Z,44.22
2024-03-12T18:20:24.554Z,43.90
2024-03-12T18:22:53.527Z,44.15
2024-03-12T18:25:21.645Z,44.88
2024-03-12T18:27:51.611Z,45.97
2024-03-12T18:30:20.024Z,44.67
2024-03-12T18:32:50.256Z,44.42
2024-03-12T18:35:20.620Z,44.40
2024-03-12T18:37:48.871Z,42.05
2024-03-12T18:40:19.976Z,44.17
2024-03-12T18:42:49.401Z,45.20
2024-03-12T18:45:19.486Z,45.45
2024-03-12T18:47:49.243Z,44.10
2024-03-12T18:50:21.131Z,43.15
2024-03-12T18:52:57.033Z,44.65
2024-03-12T18:55:27.860Z,45.33
2024-03-12T18:57:58.351Z,45.95
2024-03-12T19:00:27.867Z,46.22
2024-03-12T19:03:06.132Z,46.70
2024-03-12T19:05:38.855Z,47.83
2024-03-12T19:08:09.947Z,48.25
2024-03-12T19:10:38.924Z,48.70
2024-03-12T19:13:07.868Z,48.60
2024-03-12T19:15:38.237Z,46.92
2024-03-12T19:18:17.029Z,49.30
2024-03-12T19:20:47.243Z,49.17
2024-03-12T19:23:15.839Z,49.95
2024-03-12T19:25:44.051Z,49.85
2024-03-12T19:28:12.430Z,51.42
2024-03-12T19:30:41.234Z,50.15
2024-03-12T19:33:12.742Z,48.85
2024-03-12T19:35:41.754Z,49.20
2024-03-12T19:38:12.226Z,48.83
2024-03-12T19:40:42.376Z,49.97
2024-03-12T19:43:11.421Z,49.25
2024-03-12T19:45:42.085Z,49.55
2024-03-12T19:48:13.690Z,48.85
2024-03-12T19:50:42.640Z,50.95
2024-03-12T19:53:12.186Z,50.35
2024-03-12T19:55:43.728Z,49.03
2024-03-12T19:58:12.145Z,50.05
2024-03-12T20:00:41.284Z,48.92
2024-03-12T20:03:12.985Z,48.90
2024-03-12T20:05:42.097Z,47.28
2024-03-12T20:08:11.929Z,46.90
2024-03-12T20:10:40.353Z,49.78
2024-03-12T20:13:10.445Z,48.28
2024-03-12T20:15:44.477Z,48.10
2024-03-12T20:18:13.477Z,47.53
2024-03-12T20:20:42.504Z,47.42
2024-03-12T20:23:12.283Z,46.58
2024-03-12T20:25:43.665Z,47.15
2024-03-12T20:28:13.426Z,46.63
2024-03-12T20:30:41.897Z,46.30
2024-03-12T20:33:13.070Z,47.70
2024-03-12T20:35:44.377Z,46.78
2024-03-12T20:38:15.590Z,45.05
2024-03-12T20:40:44.335Z,48.47
2024-03-12T20:43:13.104Z,48.55
2024-03-12T20:45:42.400Z,47.15
2024-03-12T20:48:11.684Z,46.85
2024-03-12T20:50:41.241Z,47.00
2024-03-12T20:53:11.224Z,46.90
2024-03-12T20:55:41.205Z,46.15
2024-03-12T20:58:09.489Z,50.35
2024-03-12T21:00:42.409Z,46.55
2024-03-12T21:03:11.302Z,47.20
2024-03-12T21:05:40.648Z,46.63
2024-03-12T21:08:09.172Z,46.08
2024-03-12T21:10:39.260Z,43.40
2024-03-12T21:13:08.999Z,42.65
2024-03-12T21:15:37.197Z,41.67
2024-03-12T21:18:07.259Z,42.88
2024-03-12T21:20:35.736Z,41.53
2024-03-12T21:23:07.152Z,42.47
2024-03-12T21:25:35.633Z,41.33
2024-03-12T21:28:10.952Z,41.90
2024-03-12T21:30:50.079Z,41.25
2024-03-12T21:33:19.604Z,42.22
2024-03-12T21:35:55.090Z,42.65
2024-03-12T21:38:25.530Z,43.30
2024-03-12T21:40:53.735Z,42.63
2024-03-12T21:43:22.155Z,43.45
2024-03-12T21:45:51.899Z,43.17
2024-03-12T21:48:21.659Z,45.17
2024-03-12T21:50:49.816Z,45.22
2024-03-12T21:53:18.660Z,45.25
2024-03-12T21:55:46.987Z,44.13
2024-03-12T21:58:17.004Z,45.17
2024-03-12T22:00:47.976Z,46.53
2024-03-12T22:03:18.197Z,44.38
2024-03-12T22:05:46.475Z,45.05
2024-03-12T22:08:14.739Z,44.33
2024-03-12T22:10:43.091Z,45.22
2024-03-12T22:13:17.097Z,44.90
2024-03-12T22:15:50.264Z,46.38
2024-03-12T22:18:20.344Z,46.33
2024-03-12T22:20:48.427Z,45.83
2024-03-12T22:23:22.093Z,45.72
2024-03-12T22:25:50.192Z,46.20
2024-03-12T22:28:18.319Z,46.97
2024-03-12T22:30:46.554Z,45.63
2024-03-12T22:33:14.823Z,47.17
2024-03-12T22:35:44.279Z,45.88
2024-03-12T22:38:14.439Z,47.85
2024-03-12T22:40:43.722Z,45.55
2024-03-12T22:43:12.228Z,45.20
2024-03-12T22:45:40.649Z,45.17
2024-03-12T22:48:10.041Z,45.28
2024-03-12T22:50:39.720Z,43.25
2024-03-12T22:53:10.751Z,43.53
2024-03-12T22:55:39.468Z,44.70
2024-03-12T22:58:09.255Z,44.50
2024-03-12T23:00:46.473Z,44.72
2024-03-12T23:03:15.181Z,45.05
2024-03-12T23:05:44.967Z,46.70
2024-03-12T23:08:15.838Z,46.70
2024-03-12T23:10:45.985Z,46.08
2024-03-12T23:13:17.337Z,47.47
2024-03-12T23:15:45.961Z,47.65
2024-03-12T23:18:14.176Z,48.10
2024-03-12T23:20:45.818Z,46.92
2024-03-12T23:23:18.247Z,46.33
2024-03-12T23:25:46.455Z,45.97
2024-03-12T23:28:14.675Z,46.30
2024-03-12T23:30:43.488Z,45.97
2024-03-12T23:33:11.670Z,47.10
2024-03-12T23:35:39.927Z,46.10
2024-03-12T23:38:07.944Z,45.88
2024-03-12T23:40:37.463Z,44.90
2024-03-12T23:43:05.914Z,44.88
2024-03-12T23:45:34.221Z,45.05
2024-03-12T23:48:03.992Z,43.70
2024-03-12T23:50:32.638Z,43.90
2024-03-12T23:53:00.700Z,44.22
2024-03-12T23:55:29.531Z,44.30
2024-03-12T23:57:59.781Z,45.35
